Terminal Aerodrome Forecast
Issued by NWS

Home | Current Version | Previous Version | Text Only | Print | Product List | Glossary Off
Versions: 1 2 3 4 5 6 7 8 9 10 11 12 13 14 15 16 17 18 19 20 21 22 23

000
FTUS42 KMHX 301726
TAFOAJ
TAF
KOAJ 301726Z 3018/3118 VRB05KT P6SM VCSH SCT030 BKN040
     FM310300 18003KT P6SM SCT040 SCT250
     FM310800 00000KT 3SM BR SCT008
     FM311200 33005KT P6SM SCT250
      AMD LTD TO CLD VIS AND WIND=

USA.gov is the U.S. government's official web portal to all federal, state and local government web resources and services.